sensor_id;sensor_type;location;lat;lon;timestamp;pressure;altitude;pressure_sealevel;temperature;humidity
57498;BME280;43336;51.416;-0.810;2023-04-19T00:02:04;101891.44;;;10.21;68.80
57498;BME280;43336;51.416;-0.810;2023-04-19T00:05:06;101872.41;;;10.18;69.34
57498;BME280;43336;51.416;-0.810;2023-04-19T00:08:07;101877.09;;;10.08;69.24
57498;BME280;43336;51.416;-0.810;2023-04-19T00:11:08;101881.94;;;10.19;68.93
57498;BME280;43336;51.416;-0.810;2023-04-19T00:14:18;101848.66;;;10.00;68.60
57498;BME280;43336;51.416;-0.810;2023-04-19T00:17:19;101907.63;;;10.31;69.46
57498;BME280;43336;51.416;-0.810;2023-04-19T00:20:20;101873.41;;;10.14;69.16
57498;BME280;43336;51.416;-0.810;2023-04-19T00:23:21;101851.00;;;10.08;69.25
57498;BME280;43336;51.416;-0.810;2023-04-19T00:26:22;101852.78;;;10.08;69.26
57498;BME280;43336;51.416;-0.810;2023-04-19T00:29:23;101869.75;;;10.19;69.15
57498;BME280;43336;51.416;-0.810;2023-04-19T00:32:23;101851.22;;;10.02;68.92
57498;BME280;43336;51.416;-0.810;2023-04-19T00:35:24;101862.19;;;10.12;68.65
57498;BME280;43336;51.416;-0.810;2023-04-19T00:38:25;101786.19;;;9.71;68.86
57498;BME280;43336;51.416;-0.810;2023-04-19T00:41:25;101851.09;;;10.05;68.97
57498;BME280;43336;51.416;-0.810;2023-04-19T00:44:26;101883.38;;;10.29;68.84
57498;BME280;43336;51.416;-0.810;2023-04-19T00:47:27;101829.66;;;9.97;69.14
57498;BME280;43336;51.416;-0.810;2023-04-19T00:50:28;101873.41;;;10.14;69.53
57498;BME280;43336;51.416;-0.810;2023-04-19T00:53:29;101851.38;;;9.97;69.37
57498;BME280;43336;51.416;-0.810;2023-04-19T00:56:33;101887.19;;;10.17;69.51
57498;BME280;43336;51.416;-0.810;2023-04-19T00:59:34;101825.78;;;9.82;69.72
57498;BME280;43336;51.416;-0.810;2023-04-19T01:02:35;101834.88;;;9.97;69.71
57498;BME280;43336;51.416;-0.810;2023-04-19T01:05:35;101812.75;;;9.82;69.26
57498;BME280;43336;51.416;-0.810;2023-04-19T01:08:36;101843.53;;;9.97;70.16
57498;BME280;43336;51.416;-0.810;2023-04-19T01:11:36;101799.50;;;9.62;69.47
57498;BME280;43336;51.416;-0.810;2023-04-19T01:14:38;101801.16;;;9.64;69.90
57498;BME280;43336;51.416;-0.810;2023-04-19T01:17:40;101768.72;;;9.48;69.54
57498;BME280;43336;51.416;-0.810;2023-04-19T01:20:41;101797.56;;;9.68;69.51
57498;BME280;43336;51.416;-0.810;2023-04-19T01:23:42;101717.72;;;9.13;69.73
57498;BME280;43336;51.416;-0.810;2023-04-19T01:26:43;101846.50;;;9.87;70.15
57498;BME280;43336;51.416;-0.810;2023-04-19T01:29:43;101768.06;;;9.40;70.00
57498;BME280;43336;51.416;-0.810;2023-04-19T01:32:45;101829.56;;;9.72;70.36
57498;BME280;43336;51.416;-0.810;2023-04-19T01:35:46;101808.31;;;9.57;70.25
57498;BME280;43336;51.416;-0.810;2023-04-19T01:38:48;101828.63;;;9.74;70.54
57498;BME280;43336;51.416;-0.810;2023-04-19T01:41:49;101827.03;;;9.70;70.38
57498;BME280;43336;51.416;-0.810;2023-04-19T01:44:50;101822.75;;;9.68;70.09
57498;BME280;43336;51.416;-0.810;2023-04-19T01:47:51;101861.78;;;9.97;69.87
57498;BME280;43336;51.416;-0.810;2023-04-19T01:50:51;101815.03;;;9.65;70.06
57498;BME280;43336;51.416;-0.810;2023-04-19T01:53:52;101828.63;;;9.74;70.41
57498;BME280;43336;51.416;-0.810;2023-04-19T01:56:54;101800.56;;;9.56;70.17
57498;BME280;43336;51.416;-0.810;2023-04-19T01:59:54;101827.72;;;9.75;70.39
57498;BME280;43336;51.416;-0.810;2023-04-19T02:02:56;101853.31;;;9.91;70.18
57498;BME280;43336;51.416;-0.810;2023-04-19T02:05:57;101799.63;;;9.59;70.02
57498;BME280;43336;51.416;-0.810;2023-04-19T02:08:58;101818.47;;;9.67;70.06
57498;BME280;43336;51.416;-0.810;2023-04-19T02:11:58;101834.00;;;9.70;70.40
57498;BME280;43336;51.416;-0.810;2023-04-19T02:14:59;101772.44;;;9.39;70.38
57498;BME280;43336;51.416;-0.810;2023-04-19T02:18:03;101773.25;;;9.41;70.31
57498;BME280;43336;51.416;-0.810;2023-04-19T02:21:07;101840.53;;;9.83;70.25
57498;BME280;43336;51.416;-0.810;2023-04-19T02:24:08;101823.72;;;9.65;69.92
57498;BME280;43336;51.416;-0.810;2023-04-19T02:27:09;101803.94;;;9.58;69.60
57498;BME280;43336;51.416;-0.810;2023-04-19T02:30:10;101824.41;;;9.70;70.36
57498;BME280;43336;51.416;-0.810;2023-04-19T02:33:11;101785.19;;;9.48;70.01
57498;BME280;43336;51.416;-0.810;2023-04-19T02:36:12;101801.22;;;9.63;70.09
57498;BME280;43336;51.416;-0.810;2023-04-19T02:39:13;101816.00;;;9.62;69.85
57498;BME280;43336;51.416;-0.810;2023-04-19T02:42:13;101713.78;;;8.99;70.35
57498;BME280;43336;51.416;-0.810;2023-04-19T02:45:14;101797.78;;;9.62;70.03
57498;BME280;43336;51.416;-0.810;2023-04-19T02:48:15;101717.09;;;9.04;69.92
57498;BME280;43336;51.416;-0.810;2023-04-19T02:51:16;101828.63;;;9.74;70.20
57498;BME280;43336;51.416;-0.810;2023-04-19T02:54:17;101798.06;;;9.53;70.03
57498;BME280;43336;51.416;-0.810;2023-04-19T02:57:18;101786.97;;;9.46;70.04
57498;BME280;43336;51.416;-0.810;2023-04-19T03:00:18;101763.84;;;9.37;69.70
57498;BME280;43336;51.416;-0.810;2023-04-19T03:03:19;101786.31;;;9.40;69.87
57498;BME280;43336;51.416;-0.810;2023-04-19T03:06:20;101786.88;;;9.49;70.16
57498;BME280;43336;51.416;-0.810;2023-04-19T03:09:20;101769.03;;;9.37;70.22
57498;BME280;43336;51.416;-0.810;2023-04-19T03:12:21;101777.66;;;9.39;69.90
57498;BME280;43336;51.416;-0.810;2023-04-19T03:15:22;101749.56;;;9.21;70.51
57498;BME280;43336;51.416;-0.810;2023-04-19T03:18:22;101676.50;;;8.71;70.26
57498;BME280;43336;51.416;-0.810;2023-04-19T03:21:23;101774.03;;;9.43;70.69
57498;BME280;43336;51.416;-0.810;2023-04-19T03:24:28;101745.16;;;9.23;70.34
57498;BME280;43336;51.416;-0.810;2023-04-19T03:27:29;101804.00;;;9.56;70.58
57498;BME280;43336;51.416;-0.810;2023-04-19T03:30:30;101757.25;;;9.25;70.43
57498;BME280;43336;51.416;-0.810;2023-04-19T03:33:31;101714.78;;;8.95;70.45
57498;BME280;43336;51.416;-0.810;2023-04-19T03:36:31;101703.06;;;8.80;70.94
57498;BME280;43336;51.416;-0.810;2023-04-19T03:39:32;101742.09;;;9.10;70.94
57498;BME280;43336;51.416;-0.810;2023-04-19T03:42:33;101797.47;;;9.43;71.19
57498;BME280;43336;51.416;-0.810;2023-04-19T03:45:34;101803.53;;;9.44;71.12
57498;BME280;43336;51.416;-0.810;2023-04-19T03:48:34;101749.16;;;9.06;70.62
57498;BME280;43336;51.416;-0.810;2023-04-19T03:51:35;101752.41;;;9.13;71.00
57498;BME280;43336;51.416;-0.810;2023-04-19T03:54:36;101666.41;;;8.60;71.18
57498;BME280;43336;51.416;-0.810;2023-04-19T03:57:36;101754.06;;;9.16;71.35
57498;BME280;43336;51.416;-0.810;2023-04-19T04:00:37;101735.31;;;9.04;70.72
57498;BME280;43336;51.416;-0.810;2023-04-19T04:03:38;101758.28;;;9.20;70.84
57498;BME280;43336;51.416;-0.810;2023-04-19T04:06:39;101772.94;;;9.22;70.84
57498;BME280;43336;51.416;-0.810;2023-04-19T04:09:39;101728.41;;;9.03;70.60
57498;BME280;43336;51.416;-0.810;2023-04-19T04:12:40;101672.09;;;8.73;70.85
57498;BME280;43336;51.416;-0.810;2023-04-19T04:15:41;101764.34;;;9.20;70.89
57498;BME280;43336;51.416;-0.810;2023-04-19T04:18:42;101735.56;;;8.97;71.08
57498;BME280;43336;51.416;-0.810;2023-04-19T04:21:43;101717.72;;;8.84;70.93
57498;BME280;43336;51.416;-0.810;2023-04-19T04:24:43;101746.66;;;9.02;70.97
57498;BME280;43336;51.416;-0.810;2023-04-19T04:27:44;101798.75;;;9.30;71.28
57498;BME280;43336;51.416;-0.810;2023-04-19T04:30:45;101738.81;;;9.03;71.02
57498;BME280;43336;51.416;-0.810;2023-04-19T04:33:46;101780.84;;;9.19;70.99
57498;BME280;43336;51.416;-0.810;2023-04-19T04:36:47;101749.19;;;9.05;70.96
57498;BME280;43336;51.416;-0.810;2023-04-19T04:39:50;101789.31;;;9.26;71.00
57498;BME280;43336;51.416;-0.810;2023-04-19T04:42:50;101736.69;;;8.88;70.95
57498;BME280;43336;51.416;-0.810;2023-04-19T04:45:52;101683.13;;;8.51;71.30
57498;BME280;43336;51.416;-0.810;2023-04-19T04:48:54;101707.88;;;8.65;71.26
57498;BME280;43336;51.416;-0.810;2023-04-19T04:51:55;101717.38;;;8.67;71.18
57498;BME280;43336;51.416;-0.810;2023-04-19T04:54:56;101770.84;;;9.05;71.35
57498;BME280;43336;51.416;-0.810;2023-04-19T04:57:56;101759.91;;;8.94;71.05
57498;BME280;43336;51.416;-0.810;2023-04-19T05:00:57;101809.59;;;9.16;70.98
57498;BME280;43336;51.416;-0.810;2023-04-19T05:03:59;101783.97;;;9.02;71.33
57498;BME280;43336;51.416;-0.810;2023-04-19T05:07:00;101744.59;;;8.85;70.99
57498;BME280;43336;51.416;-0.810;2023-04-19T05:10:01;101755.94;;;8.82;71.45
57498;BME280;43336;51.416;-0.810;2023-04-19T05:13:02;101761.31;;;8.76;71.82
57498;BME280;43336;51.416;-0.810;2023-04-19T05:16:03;101751.94;;;8.71;71.21
57498;BME280;43336;51.416;-0.810;2023-04-19T05:19:03;101763.78;;;8.81;71.39
57498;BME280;43336;51.416;-0.810;2023-04-19T05:22:04;101740.13;;;8.59;71.67
57498;BME280;43336;51.416;-0.810;2023-04-19T05:25:06;101815.22;;;9.02;71.79
57498;BME280;43336;51.416;-0.810;2023-04-19T05:28:07;101732.38;;;8.57;71.87
57498;BME280;43336;51.416;-0.810;2023-04-19T05:31:08;101753.09;;;8.60;71.80
57498;BME280;43336;51.416;-0.810;2023-04-19T05:34:08;101744.56;;;8.55;72.01
57498;BME280;43336;51.416;-0.810;2023-04-19T05:37:09;101777.13;;;8.69;71.90
57498;BME280;43336;51.416;-0.810;2023-04-19T05:40:10;101768.69;;;8.60;71.96
57498;BME280;43336;51.416;-0.810;2023-04-19T05:43:11;101806.84;;;8.91;71.80
57498;BME280;43336;51.416;-0.810;2023-04-19T05:46:12;101710.56;;;8.30;71.93
57498;BME280;43336;51.416;-0.810;2023-04-19T05:49:12;101760.91;;;8.60;72.20
57498;BME280;43336;51.416;-0.810;2023-04-19T05:52:13;101775.66;;;8.60;72.45
57498;BME280;43336;51.416;-0.810;2023-04-19T05:55:14;101765.25;;;8.60;72.01
57498;BME280;43336;51.416;-0.810;2023-04-19T05:58:15;101777.28;;;8.64;71.70
57498;BME280;43336;51.416;-0.810;2023-04-19T06:01:15;101786.78;;;8.65;72.28
57498;BME280;43336;51.416;-0.810;2023-04-19T06:04:16;101797.84;;;8.72;71.96
57498;BME280;43336;51.416;-0.810;2023-04-19T06:07:17;101782.50;;;8.63;71.76
57498;BME280;43336;51.416;-0.810;2023-04-19T06:10:18;101779.03;;;8.62;72.41
57498;BME280;43336;51.416;-0.810;2023-04-19T06:13:18;101793.66;;;8.66;72.25
57498;BME280;43336;51.416;-0.810;2023-04-19T06:16:19;101795.41;;;8.66;72.24
57498;BME280;43336;51.416;-0.810;2023-04-19T06:19:20;101796.34;;;8.63;72.47
57498;BME280;43336;51.416;-0.810;2023-04-19T06:22:21;101797.09;;;8.68;71.50
57498;BME280;43336;51.416;-0.810;2023-04-19T06:25:23;101838.06;;;8.91;71.91
57498;BME280;43336;51.416;-0.810;2023-04-19T06:28:24;101750.19;;;8.40;72.40
57498;BME280;43336;51.416;-0.810;2023-04-19T06:31:25;101770.53;;;8.57;72.07
57498;BME280;43336;51.416;-0.810;2023-04-19T06:37:36;101778.28;;;8.58;72.30
57498;BME280;43336;51.416;-0.810;2023-04-19T06:50:36;101822.72;;;8.82;71.38
57498;BME280;43336;51.416;-0.810;2023-04-19T07:03:19;101844.91;;;8.95;70.54
57498;BME280;43336;51.416;-0.810;2023-04-19T07:06:20;101802.00;;;8.79;70.90
57498;BME280;43336;51.416;-0.810;2023-04-19T07:09:21;101770.53;;;8.57;72.38
57498;BME280;43336;51.416;-0.810;2023-04-19T07:12:22;101845.69;;;8.99;71.57
57498;BME280;43336;51.416;-0.810;2023-04-19T07:15:22;101850.81;;;9.00;70.75
57498;BME280;43336;51.416;-0.810;2023-04-19T07:18:23;101750.97;;;8.42;71.98
57498;BME280;43336;51.416;-0.810;2023-04-19T07:21:24;101814.25;;;8.74;71.46
57498;BME280;43336;51.416;-0.810;2023-04-19T07:34:44;101843.25;;;8.91;72.87
57498;BME280;43336;51.416;-0.810;2023-04-19T07:37:46;101807.44;;;8.70;72.68
57498;BME280;43336;51.416;-0.810;2023-04-19T07:43:53;101846.53;;;8.99;72.08
57498;BME280;43336;51.416;-0.810;2023-04-19T07:50:06;101809.97;;;8.73;73.48
57498;BME280;43336;51.416;-0.810;2023-04-19T08:57:03;101890.34;;;9.44;71.86
57498;BME280;43336;51.416;-0.810;2023-04-19T09:00:07;101892.06;;;9.45;72.20
57498;BME280;43336;51.416;-0.810;2023-04-19T09:03:10;101795.56;;;8.92;71.39
57498;BME280;43336;51.416;-0.810;2023-04-19T09:06:13;101832.06;;;9.19;71.45
57498;BME280;43336;51.416;-0.810;2023-04-19T10:57:13;101830.22;;;10.58;72.37
57498;BME280;43336;51.416;-0.810;2023-04-19T11:40:47;101802.84;;;11.17;72.58
57498;BME280;43336;51.416;-0.810;2023-04-19T11:43:58;101803.72;;;11.16;72.38
57498;BME280;43336;51.416;-0.810;2023-04-19T11:47:00;101801.00;;;11.19;72.48
57498;BME280;43336;51.416;-0.810;2023-04-19T11:53:31;101771.59;;;11.14;72.53
57498;BME280;43336;51.416;-0.810;2023-04-19T11:56:32;101776.81;;;11.14;72.70
57498;BME280;43336;51.416;-0.810;2023-04-19T11:59:34;101725.47;;;10.91;71.84
57498;BME280;43336;51.416;-0.810;2023-04-19T12:02:41;101722.09;;;10.89;72.04
57498;BME280;43336;51.416;-0.810;2023-04-19T12:05:55;101750.72;;;11.14;72.03
57498;BME280;43336;51.416;-0.810;2023-04-19T12:08:57;101743.72;;;11.14;72.93
57498;BME280;43336;51.416;-0.810;2023-04-19T12:11:58;101734.13;;;11.15;71.99
57498;BME280;43336;51.416;-0.810;2023-04-19T12:14:59;101718.03;;;11.04;72.42
57498;BME280;43336;51.416;-0.810;2023-04-19T12:18:01;101774.72;;;11.45;72.34
57498;BME280;43336;51.416;-0.810;2023-04-19T12:24:15;101650.28;;;10.79;71.75
57498;BME280;43336;51.416;-0.810;2023-04-19T13:17:18;101627.38;;;11.90;69.30
57498;BME280;43336;51.416;-0.810;2023-04-19T13:20:21;101719.88;;;12.48;69.94
57498;BME280;43336;51.416;-0.810;2023-04-19T13:43:55;101677.78;;;12.33;71.42
57498;BME280;43336;51.416;-0.810;2023-04-19T14:06:17;101644.72;;;12.87;65.98
57498;BME280;43336;51.416;-0.810;2023-04-19T14:12:22;101633.63;;;12.63;67.71
57498;BME280;43336;51.416;-0.810;2023-04-19T14:15:23;101670.06;;;12.87;68.14
57498;BME280;43336;51.416;-0.810;2023-04-19T14:18:24;101647.00;;;12.76;68.32
57498;BME280;43336;51.416;-0.810;2023-04-19T14:21:26;101652.66;;;12.86;68.63
57498;BME280;43336;51.416;-0.810;2023-04-19T14:24:27;101647.41;;;12.86;69.47
57498;BME280;43336;51.416;-0.810;2023-04-19T14:27:31;101664.09;;;13.02;68.75
57498;BME280;43336;51.416;-0.810;2023-04-19T14:30:32;101659.06;;;12.98;69.78
57498;BME280;43336;51.416;-0.810;2023-04-19T14:33:42;101656.16;;;13.04;69.32
57498;BME280;43336;51.416;-0.810;2023-04-19T14:36:42;101647.00;;;12.95;69.91
57498;BME280;43336;51.416;-0.810;2023-04-19T14:39:44;101628.72;;;12.94;69.84
57498;BME280;43336;51.416;-0.810;2023-04-19T14:42:45;101639.66;;;13.02;69.71
57498;BME280;43336;51.416;-0.810;2023-04-19T14:45:50;101615.00;;;12.88;69.47
57498;BME280;43336;51.416;-0.810;2023-04-19T14:48:51;101585.00;;;12.77;70.10
57498;BME280;43336;51.416;-0.810;2023-04-19T14:51:55;101631.66;;;13.05;70.17
57498;BME280;43336;51.416;-0.810;2023-04-19T14:54:55;101639.00;;;13.16;69.75
57498;BME280;43336;51.416;-0.810;2023-04-19T14:57:57;101637.75;;;13.23;69.91
57498;BME280;43336;51.416;-0.810;2023-04-19T15:00:58;101627.91;;;13.10;69.68
57498;BME280;43336;51.416;-0.810;2023-04-19T15:03:59;101640.06;;;13.30;69.82
57498;BME280;43336;51.416;-0.810;2023-04-19T15:07:00;101638.34;;;13.29;69.85
57498;BME280;43336;51.416;-0.810;2023-04-19T15:10:01;101641.44;;;13.38;70.10
57498;BME280;43336;51.416;-0.810;2023-04-19T15:13:02;101613.63;;;13.16;70.38
57498;BME280;43336;51.416;-0.810;2023-04-19T15:58:19;101578.91;;;13.30;69.87
57498;BME280;43336;51.416;-0.810;2023-04-19T16:01:20;101626.59;;;13.89;59.64
57498;BME280;43336;51.416;-0.810;2023-04-19T16:04:22;101629.91;;;14.25;49.75
57498;BME280;43336;51.416;-0.810;2023-04-19T16:07:23;101625.44;;;14.10;51.45
57498;BME280;43336;51.416;-0.810;2023-04-19T16:10:23;101596.84;;;14.05;48.70
57498;BME280;43336;51.416;-0.810;2023-04-19T16:13:24;101652.06;;;14.20;50.34
57498;BME280;43336;51.416;-0.810;2023-04-19T16:16:26;101628.91;;;13.95;47.68
57498;BME280;43336;51.416;-0.810;2023-04-19T16:19:30;101636.44;;;14.01;47.59
57498;BME280;43336;51.416;-0.810;2023-04-19T16:22:30;101649.94;;;13.93;48.13
57498;BME280;43336;51.416;-0.810;2023-04-19T16:25:33;101645.09;;;13.85;46.70
57498;BME280;43336;51.416;-0.810;2023-04-19T16:28:33;101655.50;;;14.04;47.28
57498;BME280;43336;51.416;-0.810;2023-04-19T16:31:34;101628.38;;;13.71;46.11
57498;BME280;43336;51.416;-0.810;2023-04-19T16:34:35;101648.50;;;13.88;49.63
57498;BME280;43336;51.416;-0.810;2023-04-19T16:37:36;101614.09;;;13.94;49.30
57498;BME280;43336;51.416;-0.810;2023-04-19T16:40:36;101667.31;;;14.45;51.89
57498;BME280;43336;51.416;-0.810;2023-04-19T16:47:04;101547.31;;;13.99;53.20
57498;BME280;43336;51.416;-0.810;2023-04-19T17:09:07;101668.91;;;14.96;56.00
57498;BME280;43336;51.416;-0.810;2023-04-19T17:12:32;101656.38;;;14.86;55.62
57498;BME280;43336;51.416;-0.810;2023-04-19T20:45:35;101753.88;;;13.06;59.16
57498;BME280;43336;51.416;-0.810;2023-04-19T20:48:41;101781.03;;;13.22;59.13
57498;BME280;43336;51.416;-0.810;2023-04-19T21:05:16;101702.69;;;12.61;60.32
57498;BME280;43336;51.416;-0.810;2023-04-19T21:20:59;101808.56;;;12.74;57.84
57498;BME280;43336;51.416;-0.810;2023-04-19T21:33:33;101784.22;;;12.72;60.17
57498;BME280;43336;51.416;-0.810;2023-04-19T21:36:35;101689.47;;;12.06;60.15
57498;BME280;43336;51.416;-0.810;2023-04-19T21:58:39;101784.91;;;12.36;59.57
57498;BME280;43336;51.416;-0.810;2023-04-19T22:08:03;101787.72;;;12.32;59.85
57498;BME280;43336;51.416;-0.810;2023-04-19T22:11:05;101720.84;;;11.85;59.69
57498;BME280;43336;51.416;-0.810;2023-04-19T22:36:09;101602.06;;;10.87;60.94
57498;BME280;43336;51.416;-0.810;2023-04-19T22:45:31;101736.75;;;11.59;60.04
57498;BME280;43336;51.416;-0.810;2023-04-19T22:51:43;101734.41;;;11.51;60.36
57498;BME280;43336;51.416;-0.810;2023-04-19T22:54:44;101747.19;;;11.59;60.52
57498;BME280;43336;51.416;-0.810;2023-04-19T23:04:09;101707.09;;;11.16;60.72
57498;BME280;43336;51.416;-0.810;2023-04-19T23:16:49;101743.72;;;11.36;61.24
57498;BME280;43336;51.416;-0.810;2023-04-19T23:19:51;101663.88;;;10.87;60.83
57498;BME280;43336;51.416;-0.810;2023-04-19T23:26:02;101677.66;;;10.90;61.44
57498;BME280;43336;51.416;-0.810;2023-04-19T23:38:35;101753.53;;;11.31;61.16
57498;BME280;43336;51.416;-0.810;2023-04-19T23:48:12;101766.19;;;11.18;61.36
57498;BME280;43336;51.416;-0.810;2023-04-19T23:51:12;101757.50;;;11.18;61.68
57498;BME280;43336;51.416;-0.810;2023-04-19T23:54:18;101756.84;;;11.13;61.43
